Time;durP1;ratioP1;P1;durP2;ratioP2;P2;SDS_P1;SDS_P2;PMS_P1;PMS_P2;Temp;Humidity;BMP_temperature;BMP_pressure;BME280_temperature;BME280_humidity;BME280_pressure;Samples;Min_cycle;Max_cycle;Signal;HPM_P1;HPM_P2
2023/04/25 00:01:25;;;;;;;;;;;;;;;22.22;44.78;101275.28;7259437;19;154697;-82
2023/04/25 00:03:52;;;;;;;;;;;;;;;22.21;44.73;101271.66;7260403;19;154657;-82
2023/04/25 00:06:20;;;;;;;;;;;;;;;22.20;44.39;101272.81;7254359;19;153698;-82
2023/04/25 00:08:47;;;;;;;;;;;;;;;22.18;44.59;101280.72;7266674;19;156150;-81
2023/04/25 00:11:15;;;;;;;;;;;;;;;22.18;44.34;101272.28;7259570;19;152399;-81
2023/04/25 00:13:42;;;;;;;;;;;;;;;22.16;44.22;101266.97;7263060;19;153834;-82
2023/04/25 00:16:10;;;;;;;;;;;;;;;22.14;44.23;101266.44;7255247;19;154612;-82
2023/04/25 00:18:37;;;;;;;;;;;;;;;22.14;44.34;101266.44;7260167;19;153363;-81
2023/04/25 00:21:06;;;;;;;;;;;;;;;22.11;44.44;101264.25;7258130;19;154827;-81
2023/04/25 00:23:35;;;;;;;;;;;;;;;22.10;43.85;101262.59;7259463;19;154927;-81
2023/04/25 00:26:02;;;;;;;;;;;;;;;22.10;44.14;101264.56;7258784;19;153569;-82
2023/04/25 00:28:30;;;;;;;;;;;;;;;22.07;43.87;101268.84;7262117;19;154492;-81
2023/04/25 00:30:57;;;;;;;;;;;;;;;22.03;44.45;101279.03;7262454;19;154911;-82
2023/04/25 00:33:24;;;;;;;;;;;;;;;22.03;43.86;101283.84;7259246;19;154333;-81
2023/04/25 00:35:52;;;;;;;;;;;;;;;21.98;44.16;101281.13;7254298;19;154277;-81
2023/04/25 00:38:19;;;;;;;;;;;;;;;21.98;43.76;101289.56;7258821;19;154231;-81
2023/04/25 00:40:46;;;;;;;;;;;;;;;21.97;44.07;101291.53;7253794;19;154549;-82
2023/04/25 00:43:14;;;;;;;;;;;;;;;21.93;44.26;101290.50;7260162;19;153641;-81
2023/04/25 00:45:42;;;;;;;;;;;;;;;21.92;43.75;101291.59;7257611;19;153735;-81
2023/04/25 00:48:10;;;;;;;;;;;;;;;21.91;44.12;101298.38;7262166;19;156043;-81
2023/04/25 00:50:37;;;;;;;;;;;;;;;21.81;44.03;101292.91;7257495;19;153741;-82
2023/04/25 00:53:04;;;;;;;;;;;;;;;21.77;43.86;101288.22;7267101;19;153730;-81
2023/04/25 00:55:43;;;;;;;;;;;;;;;21.73;44.26;101286.03;7290761;19;152960;-55
2023/04/25 00:58:10;;;;;;;;;;;;;;;21.73;43.94;101300.09;7285879;19;153886;-55
2023/04/25 01:00:37;;;;;;;;;;;;;;;21.68;44.07;101307.78;7284025;19;154743;-55
2023/04/25 01:03:04;;;;;;;;;;;;;;;21.63;43.85;101296.63;7287367;19;152471;-56
2023/04/25 01:05:32;;;;;;;;;;;;;;;21.62;44.02;101304.22;7285606;19;153433;-56
2023/04/25 01:07:59;;;;;;;;;;;;;;;21.54;43.90;101296.47;7285474;19;153945;-55
2023/04/25 01:10:26;;;;;;;;;;;;;;;21.53;43.94;101302.44;7287189;19;153161;-55
2023/04/25 01:12:53;;;;;;;;;;;;;;;21.52;43.70;101293.16;7284659;19;154227;-55
2023/04/25 01:15:20;;;;;;;;;;;;;;;21.47;43.97;101293.25;7289685;19;153981;-56
2023/04/25 01:17:49;;;;;;;;;;;;;;;21.41;43.91;101291.66;7285356;19;153836;-55
2023/04/25 01:20:16;;;;;;;;;;;;;;;21.42;43.84;101298.09;7287601;19;154536;-55
2023/04/25 01:22:43;;;;;;;;;;;;;;;21.34;43.84;101302.47;7289443;19;155040;-55
2023/04/25 01:25:10;;;;;;;;;;;;;;;21.38;44.09;101299.88;7284614;19;153351;-55
2023/04/25 01:27:37;;;;;;;;;;;;;;;21.30;44.07;101301.41;7286995;19;153648;-56
2023/04/25 01:30:05;;;;;;;;;;;;;;;21.27;43.81;101300.03;7283900;19;154154;-56
2023/04/25 01:32:38;;;;;;;;;;;;;;;21.26;43.83;101300.31;7285500;19;155005;-56
2023/04/25 01:37:37;;;;;;;;;;;;;;;21.19;44.01;101303.53;7293648;19;154910;-55
2023/04/25 01:40:05;;;;;;;;;;;;;;;21.15;44.16;101299.66;7287629;19;153792;-55
2023/04/25 01:42:33;;;;;;;;;;;;;;;21.16;43.68;101308.91;7282265;19;154262;-54
2023/04/25 01:45:00;;;;;;;;;;;;;;;21.12;43.96;101307.84;7281863;19;154472;-55
2023/04/25 01:47:27;;;;;;;;;;;;;;;21.12;43.76;101319.06;7285785;19;152851;-55
2023/04/25 01:49:56;;;;;;;;;;;;;;;21.09;43.61;101322.47;7285707;19;154429;-55
2023/04/25 01:52:24;;;;;;;;;;;;;;;21.04;43.55;101314.09;7284961;19;153983;-55
2023/04/25 01:54:51;;;;;;;;;;;;;;;21.03;44.00;101323.69;7283526;19;152023;-55
2023/04/25 01:57:18;;;;;;;;;;;;;;;21.00;43.80;101324.28;7290286;19;154674;-55
2023/04/25 01:59:45;;;;;;;;;;;;;;;20.99;43.96;101329.06;7288032;19;155305;-55
2023/04/25 02:02:12;;;;;;;;;;;;;;;20.98;43.90;101318.16;7281654;19;154449;-55
2023/04/25 02:04:39;;;;;;;;;;;;;;;20.98;43.88;101319.00;7281622;19;153993;-55
2023/04/25 02:07:06;;;;;;;;;;;;;;;20.94;43.63;101317.09;7255931;19;153733;-57
2023/04/25 02:09:33;;;;;;;;;;;;;;;20.94;43.72;101317.09;7258334;19;153493;-55
2023/04/25 02:12:01;;;;;;;;;;;;;;;20.91;43.91;101320.47;7255293;19;153836;-55
2023/04/25 02:14:28;;;;;;;;;;;;;;;20.89;43.47;101319.97;7256200;19;153117;-54
2023/04/25 02:16:55;;;;;;;;;;;;;;;20.87;43.82;101323.06;7258992;19;153015;-55
2023/04/25 02:19:22;;;;;;;;;;;;;;;20.88;43.45;101321.94;7257465;19;155474;-55
2023/04/25 02:21:49;;;;;;;;;;;;;;;20.88;43.51;101321.94;7261796;19;154467;-54
2023/04/25 02:24:16;;;;;;;;;;;;;;;20.84;43.82;101327.31;7254074;19;154381;-57
2023/04/25 02:26:43;;;;;;;;;;;;;;;20.82;43.77;101326.78;7259557;19;154222;-56
2023/04/25 02:29:10;;;;;;;;;;;;;;;20.85;43.83;101330.94;7253824;19;153767;-56
2023/04/25 02:31:37;;;;;;;;;;;;;;;20.79;43.45;101330.19;7259460;19;153647;-56
2023/04/25 02:34:06;;;;;;;;;;;;;;;20.75;43.60;101326.31;7254135;19;154191;-56
2023/04/25 02:36:35;;;;;;;;;;;;;;;20.73;43.47;101330.53;7256597;19;154806;-55
2023/04/25 02:39:02;;;;;;;;;;;;;;;20.73;43.59;101322.97;7252169;19;154439;-56
2023/04/25 02:41:29;;;;;;;;;;;;;;;20.70;43.67;101332.00;7260269;19;154288;-56
2023/04/25 02:43:56;;;;;;;;;;;;;;;20.68;43.63;101336.22;7264538;19;153986;-56
2023/04/25 02:46:23;;;;;;;;;;;;;;;20.65;43.77;101329.25;7256980;19;153086;-56
2023/04/25 02:49:05;;;;;;;;;;;;;;;20.65;43.92;101334.03;7255947;19;156439;-56
2023/04/25 02:51:32;;;;;;;;;;;;;;;20.62;43.96;101332.66;7254379;19;153840;-56
2023/04/25 02:53:59;;;;;;;;;;;;;;;20.59;43.53;101336.06;7257240;19;154352;-56
2023/04/25 02:56:26;;;;;;;;;;;;;;;20.59;43.87;101332.41;7258735;19;154136;-56
2023/04/25 02:58:53;;;;;;;;;;;;;;;20.56;43.49;101335.81;7253140;19;153496;-55
2023/04/25 03:01:20;;;;;;;;;;;;;;;20.55;43.82;101349.03;7254145;19;154578;-55
2023/04/25 03:03:47;;;;;;;;;;;;;;;20.55;43.51;101351.81;7256460;19;152636;-55
2023/04/25 03:06:15;;;;;;;;;;;;;;;20.49;43.47;101343.78;7263254;19;153586;-55
2023/04/25 03:08:42;;;;;;;;;;;;;;;20.52;43.77;101345.97;7255795;19;154644;-55
2023/04/25 03:11:10;;;;;;;;;;;;;;;20.48;43.42;101342.94;7254137;19;154432;-56
2023/04/25 03:13:37;;;;;;;;;;;;;;;20.47;43.51;101344.06;7256140;19;153915;-56
2023/04/25 03:16:04;;;;;;;;;;;;;;;20.44;43.81;101341.88;7251143;19;153316;-56
2023/04/25 03:18:31;;;;;;;;;;;;;;;20.43;43.64;101345.81;7252637;19;154543;-56
2023/04/25 03:20:58;;;;;;;;;;;;;;;20.44;43.86;101350.28;7252842;19;153839;-56
2023/04/25 03:23:25;;;;;;;;;;;;;;;20.39;43.60;101351.19;7256351;19;153713;-56
2023/04/25 03:25:52;;;;;;;;;;;;;;;20.42;43.68;101358.16;7262271;19;153720;-56
2023/04/25 03:28:20;;;;;;;;;;;;;;;20.41;43.75;101356.47;7254893;19;153302;-56
2023/04/25 03:30:46;;;;;;;;;;;;;;;20.36;43.41;101357.38;7246941;19;153564;-56
2023/04/25 03:33:16;;;;;;;;;;;;;;;20.35;43.31;101366.09;7254317;19;153390;-56
2023/04/25 03:35:43;;;;;;;;;;;;;;;20.38;43.63;101365.50;7252153;19;156188;-56
2023/04/25 03:38:09;;;;;;;;;;;;;;;20.31;43.27;101363.03;7256475;19;154220;-56
2023/04/25 03:40:36;;;;;;;;;;;;;;;20.28;43.68;101363.59;7256273;19;155926;-56
2023/04/25 03:43:03;;;;;;;;;;;;;;;20.27;43.48;101363.91;7254713;19;153521;-56
2023/04/25 03:45:33;;;;;;;;;;;;;;;20.22;43.40;101372.34;7245288;19;154905;-56
2023/04/25 03:48:00;;;;;;;;;;;;;;;20.21;43.47;101367.91;7263181;19;154424;-56
2023/04/25 03:50:27;;;;;;;;;;;;;;;20.20;43.67;101371.84;7253012;19;154175;-56
2023/04/25 03:52:54;;;;;;;;;;;;;;;20.17;43.75;101378.06;7254596;19;154280;-56
2023/04/25 03:55:20;;;;;;;;;;;;;;;20.17;43.51;101372.44;7254327;19;153164;-56
2023/04/25 03:57:47;;;;;;;;;;;;;;;20.14;43.68;101367.41;7252478;19;153937;-56
2023/04/25 04:00:14;;;;;;;;;;;;;;;20.12;43.46;101378.94;7250904;19;154267;-56
2023/04/25 04:02:41;;;;;;;;;;;;;;;20.11;43.65;101373.59;7249315;19;155204;-55
2023/04/25 04:05:11;;;;;;;;;;;;;;;20.07;43.83;101369.72;7253507;19;156413;-56
2023/04/25 04:07:39;;;;;;;;;;;;;;;20.04;43.89;101376.75;7256036;19;153542;-56
2023/04/25 04:10:07;;;;;;;;;;;;;;;20.04;43.72;101384.31;7256921;19;154141;-56
2023/04/25 04:12:34;;;;;;;;;;;;;;;20.03;43.48;101388.28;7249946;19;153239;-56
2023/04/25 04:15:03;;;;;;;;;;;;;;;19.99;43.64;101379.59;7250148;19;154349;-56
2023/04/25 04:17:30;;;;;;;;;;;;;;;19.98;43.58;101392.81;7253182;19;153899;-56
2023/04/25 04:19:57;;;;;;;;;;;;;;;19.98;43.75;101397.56;7252678;19;154233;-56
2023/04/25 04:22:25;;;;;;;;;;;;;;;19.95;43.54;101396.19;7252699;19;154882;-56
2023/04/25 04:24:52;;;;;;;;;;;;;;;19.93;43.46;101397.63;7249864;19;154856;-56
2023/04/25 04:27:19;;;;;;;;;;;;;;;19.92;43.83;101401.53;7252828;19;153779;-60
2023/04/25 04:29:46;;;;;;;;;;;;;;;19.90;43.79;101407.44;7249217;19;153515;-55
2023/04/25 04:32:13;;;;;;;;;;;;;;;19.87;43.67;101405.22;7261732;19;154416;-56
2023/04/25 04:34:41;;;;;;;;;;;;;;;19.84;43.61;101411.44;7254764;19;153665;-56
2023/04/25 04:37:08;;;;;;;;;;;;;;;19.83;43.39;101414.53;7250728;19;156199;-56
2023/04/25 04:39:34;;;;;;;;;;;;;;;19.82;43.77;101422.09;7249886;19;155113;-56
2023/04/25 04:42:01;;;;;;;;;;;;;;;19.81;43.48;101427.97;7254676;19;153364;-56
2023/04/25 04:44:32;;;;;;;;;;;;;;;19.81;43.28;101433.59;7248895;19;153933;-56
2023/04/25 04:46:59;;;;;;;;;;;;;;;19.79;43.53;101435.84;7252649;19;152906;-56
2023/04/25 04:49:26;;;;;;;;;;;;;;;19.79;43.60;101436.69;7250931;19;154760;-56
2023/04/25 04:51:54;;;;;;;;;;;;;;;19.83;43.64;101437.78;7250562;19;154072;-56
2023/04/25 04:54:24;;;;;;;;;;;;;;;19.90;43.38;101441.09;7259554;19;155010;-56
2023/04/25 04:56:52;;;;;;;;;;;;;;;19.96;43.89;101445.53;7252107;19;154924;-55
2023/04/25 04:59:19;;;;;;;;;;;;;;;20.02;44.01;101440.72;7248455;19;153487;-55
2023/04/25 05:01:46;;;;;;;;;;;;;;;20.07;43.87;101434.25;7254907;19;153536;-54
2023/04/25 05:04:13;;;;;;;;;;;;;;;20.11;44.52;101441.78;7250371;19;154675;-55
2023/04/25 05:06:40;;;;;;;;;;;;;;;20.16;44.29;101440.91;7253581;19;152592;-55
2023/04/25 05:09:07;;;;;;;;;;;;;;;20.20;44.55;101437.22;7251157;19;153604;-55
2023/04/25 05:11:36;;;;;;;;;;;;;;;20.25;44.63;101439.97;7253666;19;154499;-55
2023/04/25 05:14:03;;;;;;;;;;;;;;;20.32;44.43;101453.69;7257932;19;153772;-55
2023/04/25 05:16:30;;;;;;;;;;;;;;;20.37;44.58;101467.66;7249468;19;154540;-56
2023/04/25 05:18:57;;;;;;;;;;;;;;;20.43;44.37;101469.31;7251565;19;154161;-55
2023/04/25 05:21:24;;;;;;;;;;;;;;;20.48;44.09;101476.84;7251737;19;153373;-55
2023/04/25 05:23:50;;;;;;;;;;;;;;;20.53;44.37;101480.44;7250413;19;154052;-55
2023/04/25 05:26:18;;;;;;;;;;;;;;;20.58;44.16;101477.56;7252624;19;153701;-55
2023/04/25 05:28:45;;;;;;;;;;;;;;;20.63;44.01;101480.31;7254061;19;154795;-55
2023/04/25 05:31:12;;;;;;;;;;;;;;;20.67;43.96;101487.00;7247095;19;153980;-55
2023/04/25 05:33:39;;;;;;;;;;;;;;;20.73;44.01;101501.84;7250001;19;152878;-55
2023/04/25 05:36:06;;;;;;;;;;;;;;;20.77;43.74;101509.38;7256320;19;155198;-55
2023/04/25 05:38:33;;;;;;;;;;;;;;;20.80;44.04;101508.78;7250119;19;153333;-55
2023/04/25 05:41:00;;;;;;;;;;;;;;;20.84;43.83;101515.50;7252902;19;153380;-55
2023/04/25 05:43:27;;;;;;;;;;;;;;;20.87;43.59;101519.66;7259393;19;153502;-55
2023/04/25 05:45:54;;;;;;;;;;;;;;;20.91;43.35;101514.28;7253487;19;153697;-56
2023/04/25 05:48:21;;;;;;;;;;;;;;;20.94;43.33;101519.34;7261284;19;154245;-55
2023/04/25 05:50:48;;;;;;;;;;;;;;;20.96;43.06;101511.44;7259335;19;154417;-54
2023/04/25 05:53:15;;;;;;;;;;;;;;;20.97;42.95;101505.53;7256820;19;153336;-55
2023/04/25 05:55:42;;;;;;;;;;;;;;;21.00;42.72;101512.50;7257768;19;154968;-55
2023/04/25 05:58:08;;;;;;;;;;;;;;;21.01;42.49;101517.84;7264984;19;153485;-56
2023/04/25 06:00:36;;;;;;;;;;;;;;;21.03;42.85;101521.16;7248334;19;154434;-55
2023/04/25 06:03:09;;;;;;;;;;;;;;;21.05;42.57;101530.16;7254354;19;153676;-55
2023/04/25 06:05:36;;;;;;;;;;;;;;;21.04;42.14;101520.03;7256380;19;153942;-55
2023/04/25 06:08:03;;;;;;;;;;;;;;;21.05;42.37;101521.72;7259709;19;154758;-55
2023/04/25 06:10:32;;;;;;;;;;;;;;;21.08;42.39;101523.09;7254347;19;154514;-55
2023/04/25 06:12:59;;;;;;;;;;;;;;;21.08;42.18;101525.91;7259930;19;154072;-55
2023/04/25 06:15:26;;;;;;;;;;;;;;;21.09;42.18;101527.56;7253040;19;153434;-55
2023/04/25 06:17:55;;;;;;;;;;;;;;;21.10;41.90;101527.28;7258021;19;153442;-55
2023/04/25 06:20:24;;;;;;;;;;;;;;;21.11;42.83;101531.78;7265042;19;153607;-55
2023/04/25 06:22:52;;;;;;;;;;;;;;;21.12;42.08;101535.44;7256794;19;155389;-55
2023/04/25 06:25:20;;;;;;;;;;;;;;;21.11;42.25;101543.03;7258706;19;153254;-55
2023/04/25 06:27:46;;;;;;;;;;;;;;;21.09;42.08;101539.66;7259736;19;154969;-56
2023/04/25 06:30:13;;;;;;;;;;;;;;;20.81;37.05;101538.53;7252232;19;153684;-55
2023/04/25 06:32:40;;;;;;;;;;;;;;;20.64;37.24;101534.50;7254686;19;153323;-54
2023/04/25 06:35:08;;;;;;;;;;;;;;;20.78;37.69;101535.50;7256528;19;153396;-54
2023/04/25 06:37:35;;;;;;;;;;;;;;;20.83;37.63;101544.72;7255563;19;154709;-54
2023/04/25 06:40:02;;;;;;;;;;;;;;;20.83;38.03;101549.50;7250196;19;154265;-54
2023/04/25 06:42:29;;;;;;;;;;;;;;;20.88;37.83;101552.25;7261906;19;154797;-54
2023/04/25 06:44:56;;;;;;;;;;;;;;;20.89;37.93;101544.66;7253401;19;154515;-54
2023/04/25 06:47:23;;;;;;;;;;;;;;;20.97;37.91;101546.81;7258621;19;154076;-54
2023/04/25 06:49:51;;;;;;;;;;;;;;;20.99;38.27;101544.53;7255418;19;153977;-54
2023/04/25 06:52:19;;;;;;;;;;;;;;;21.00;38.13;101552.69;7254705;19;152294;-55
2023/04/25 06:54:46;;;;;;;;;;;;;;;21.05;38.15;101548.97;7253639;19;155128;-54
2023/04/25 06:57:14;;;;;;;;;;;;;;;21.08;38.06;101560.44;7253477;19;155594;-54
2023/04/25 06:59:43;;;;;;;;;;;;;;;21.13;38.18;101563.25;7250322;19;153635;-54
2023/04/25 07:02:10;;;;;;;;;;;;;;;21.17;38.09;101553.09;7252927;19;154429;-54
2023/04/25 07:04:37;;;;;;;;;;;;;;;21.19;38.20;101556.44;7261885;19;153363;-54
2023/04/25 07:07:04;;;;;;;;;;;;;;;21.26;37.73;101551.28;7255584;19;154033;-54
2023/04/25 07:09:33;;;;;;;;;;;;;;;21.29;37.83;101549.88;7253305;19;154229;-54
2023/04/25 07:12:01;;;;;;;;;;;;;;;21.30;37.84;101557.19;7254904;19;154115;-54
2023/04/25 07:14:29;;;;;;;;;;;;;;;21.35;37.83;101559.09;7253563;19;153994;-54
2023/04/25 07:16:56;;;;;;;;;;;;;;;21.37;37.71;101568.88;7253445;19;155142;-53
2023/04/25 07:19:26;;;;;;;;;;;;;;;21.40;37.38;101562.66;7256208;19;154060;-54
2023/04/25 07:21:53;;;;;;;;;;;;;;;21.40;37.51;101565.47;7255761;19;154984;-54
2023/04/25 07:24:20;;;;;;;;;;;;;;;21.47;37.85;101573.56;7258746;19;153623;-54
2023/04/25 07:26:47;;;;;;;;;;;;;;;21.51;38.03;101583.06;7257671;19;155186;-54
2023/04/25 07:29:14;;;;;;;;;;;;;;;21.55;38.04;101582.16;7251490;19;153975;-55
2023/04/25 07:31:41;;;;;;;;;;;;;;;21.60;38.17;101584.91;7259250;19;154085;-54
2023/04/25 07:34:08;;;;;;;;;;;;;;;21.62;37.71;101588.25;7254492;19;153896;-54
2023/04/25 07:36:35;;;;;;;;;;;;;;;21.67;37.96;101595.78;7253381;19;154953;-53
2023/04/25 07:39:03;;;;;;;;;;;;;;;21.67;37.37;101590.16;7253855;19;153850;-54
2023/04/25 07:41:30;;;;;;;;;;;;;;;21.72;37.51;101590.09;7253680;19;153073;-54
2023/04/25 07:43:57;;;;;;;;;;;;;;;21.73;37.64;101587.00;7250711;19;155795;-54
2023/04/25 07:46:24;;;;;;;;;;;;;;;21.75;37.22;101592.31;7261070;19;153164;-55
2023/04/25 07:48:51;;;;;;;;;;;;;;;21.74;37.04;101588.66;7251178;19;155766;-55
2023/04/25 07:51:19;;;;;;;;;;;;;;;21.73;37.17;101595.44;7255847;19;152762;-55
2023/04/25 07:53:46;;;;;;;;;;;;;;;21.76;37.04;101595.97;7256573;19;153754;-55
2023/04/25 07:56:16;;;;;;;;;;;;;;;21.76;36.69;101602.41;7252354;19;154169;-55
2023/04/25 07:58:43;;;;;;;;;;;;;;;21.77;36.92;101606.06;7253320;19;153848;-55
2023/04/25 08:01:10;;;;;;;;;;;;;;;21.78;37.13;101607.75;7249928;19;156419;-55
2023/04/25 08:03:41;;;;;;;;;;;;;;;21.77;36.46;101620.13;7251674;19;154445;-55
2023/04/25 08:06:09;;;;;;;;;;;;;;;21.78;36.89;101625.47;7252364;19;154460;-55
2023/04/25 08:08:38;;;;;;;;;;;;;;;21.84;37.36;101627.09;7260487;19;153952;-54
2023/04/25 08:11:06;;;;;;;;;;;;;;;21.86;36.96;101624.78;7223211;19;157102;-54
2023/04/25 08:13:35;;;;;;;;;;;;;;;21.86;36.83;101633.22;7250708;19;153413;-53
2023/04/25 08:16:02;;;;;;;;;;;;;;;21.86;36.66;101624.78;7247716;19;156569;-54
2023/04/25 08:18:36;;;;;;;;;;;;;;;21.89;36.51;101626.19;7251377;19;153175;-54
2023/04/25 08:21:11;;;;;;;;;;;;;;;21.90;36.58;101622.22;7253352;19;153202;-53
2023/04/25 08:23:38;;;;;;;;;;;;;;;21.94;36.44;101626.16;7250588;19;154300;-53
2023/04/25 08:26:07;;;;;;;;;;;;;;;21.92;36.18;101629.22;7246495;19;153987;-54
2023/04/25 08:28:34;;;;;;;;;;;;;;;21.97;36.14;101628.34;7247894;19;152845;-54
2023/04/25 08:31:05;;;;;;;;;;;;;;;21.94;36.13;101643.84;7250924;19;154119;-54
2023/04/25 08:33:36;;;;;;;;;;;;;;;21.97;36.21;101643.25;7251129;19;153615;-54
2023/04/25 08:36:03;;;;;;;;;;;;;;;21.95;36.26;101636.25;7246429;19;154626;-56
2023/04/25 08:38:31;;;;;;;;;;;;;;;21.95;36.50;101641.88;7249229;19;153987;-54
2023/04/25 08:40:59;;;;;;;;;;;;;;;21.99;36.49;101640.97;7251609;19;154162;-54
2023/04/25 08:43:28;;;;;;;;;;;;;;;21.99;36.42;101632.53;7243152;19;154034;-54
2023/04/25 08:45:58;;;;;;;;;;;;;;;22.00;36.18;101639.84;7237078;19;152526;-54
2023/04/25 08:48:27;;;;;;;;;;;;;;;21.97;36.14;101634.81;7248430;19;156110;-54
2023/04/25 08:50:55;;;;;;;;;;;;;;;21.99;35.96;101634.50;7250037;19;156626;-54
2023/04/25 08:53:25;;;;;;;;;;;;;;;22.01;35.87;101630.25;7262196;19;154359;-54
2023/04/25 08:55:56;;;;;;;;;;;;;;;22.01;36.24;101635.06;7246356;19;154205;-53
2023/04/25 08:58:23;;;;;;;;;;;;;;;21.99;35.85;101634.50;7248293;19;152573;-55
2023/04/25 09:00:51;;;;;;;;;;;;;;;21.98;36.01;101630.03;7248092;19;154394;-54
2023/04/25 09:03:26;;;;;;;;;;;;;;;21.95;36.00;101627.81;7248571;19;154529;-54
2023/04/25 09:06:05;;;;;;;;;;;;;;;21.95;35.86;101637.09;7248660;19;154949;-54
2023/04/25 09:08:32;;;;;;;;;;;;;;;21.98;36.35;101635.66;7252639;19;153056;-55
2023/04/25 09:10:59;;;;;;;;;;;;;;;21.96;35.89;101635.97;7247244;19;153767;-54
2023/04/25 09:13:28;;;;;;;;;;;;;;;22.02;35.92;101639.56;7248448;19;154266;-54
2023/04/25 09:15:56;;;;;;;;;;;;;;;22.05;35.97;101633.31;7256129;19;154252;-54
2023/04/25 09:18:26;;;;;;;;;;;;;;;22.06;35.92;101629.34;7258594;19;153133;-54
2023/04/25 09:21:06;;;;;;;;;;;;;;;22.13;36.35;101627.84;7251371;19;155197;-54
2023/04/25 09:23:41;;;;;;;;;;;;;;;22.16;35.87;101632.03;7255076;19;154754;-54
2023/04/25 09:26:09;;;;;;;;;;;;;;;22.20;36.54;101640.72;7253073;19;153966;-54
2023/04/25 09:28:37;;;;;;;;;;;;;;;22.21;36.28;101636.75;7256907;19;152949;-54
2023/04/25 09:31:05;;;;;;;;;;;;;;;22.25;35.90;101638.66;7254054;19;153405;-55
2023/04/25 09:33:33;;;;;;;;;;;;;;;22.29;36.29;101634.09;7259009;19;154267;-54
2023/04/25 09:36:03;;;;;;;;;;;;;;;22.30;36.40;101641.41;7262570;19;153019;-54
2023/04/25 09:38:31;;;;;;;;;;;;;;;22.36;36.14;101630.88;7256465;19;154416;-55
2023/04/25 09:41:00;;;;;;;;;;;;;;;22.38;36.29;101637.91;7256270;19;154165;-54
2023/04/25 09:43:33;;;;;;;;;;;;;;;22.43;36.39;101635.00;7253321;19;153650;-54
2023/04/25 09:46:01;;;;;;;;;;;;;;;22.44;36.04;101633.84;7253048;19;153243;-54
2023/04/25 09:48:29;;;;;;;;;;;;;;;22.42;35.97;101632.50;7257160;19;153355;-54
2023/04/25 09:51:06;;;;;;;;;;;;;;;22.41;36.12;101631.66;7257658;19;158013;-54
2023/04/25 09:53:34;;;;;;;;;;;;;;;22.43;35.67;101626.56;7257167;19;154028;-54
2023/04/25 09:56:03;;;;;;;;;;;;;;;22.47;35.74;101635.25;7254365;19;153610;-54
2023/04/25 09:58:31;;;;;;;;;;;;;;;22.47;35.71;101629.59;7260544;19;154818;-54
2023/04/25 10:01:01;;;;;;;;;;;;;;;22.52;35.79;101624.75;7254586;19;153317;-54
2023/04/25 10:03:30;;;;;;;;;;;;;;;22.50;35.64;101629.81;7253210;19;154673;-55
2023/04/25 10:06:00;;;;;;;;;;;;;;;22.51;35.50;101623.06;7254792;19;154555;-54
2023/04/25 10:08:31;;;;;;;;;;;;;;;22.53;35.69;101620.75;7255013;19;153888;-54
2023/04/25 10:11:00;;;;;;;;;;;;;;;22.57;35.67;101618.19;7257414;19;156203;-54
2023/04/25 10:13:28;;;;;;;;;;;;;;;22.58;35.32;101625.47;7252325;19;155063;-54
2023/04/25 10:15:57;;;;;;;;;;;;;;;22.59;35.61;101627.16;7254131;19;155989;-54
2023/04/25 10:18:26;;;;;;;;;;;;;;;22.55;35.40;101624.13;7255385;19;154152;-54
2023/04/25 10:20:54;;;;;;;;;;;;;;;22.56;35.72;101630.59;7267624;19;152388;-54
2023/04/25 10:23:21;;;;;;;;;;;;;;;22.59;35.61;101624.34;7258264;19;154412;-55
2023/04/25 10:25:50;;;;;;;;;;;;;;;22.60;35.59;101634.47;7252336;19;153166;-59
2023/04/25 10:28:20;;;;;;;;;;;;;;;22.59;35.34;101630.81;7251972;19;154196;-54
2023/04/25 10:30:58;;;;;;;;;;;;;;;22.53;35.64;101634.84;7255840;19;154119;-54
2023/04/25 10:33:34;;;;;;;;;;;;;;;22.49;35.24;101638.56;7253561;19;153637;-54
2023/04/25 10:36:09;;;;;;;;;;;;;;;22.52;35.52;101638.81;7251570;19;155131;-54
2023/04/25 10:38:37;;;;;;;;;;;;;;;22.49;35.27;101636.59;7253773;19;155239;-54
2023/04/25 10:41:05;;;;;;;;;;;;;;;22.43;35.30;101643.47;7254259;19;155029;-54
2023/04/25 10:43:42;;;;;;;;;;;;;;;22.48;35.28;101636.91;7262522;19;154285;-54
2023/04/25 10:46:13;;;;;;;;;;;;;;;22.43;35.17;101646.28;7247328;19;153252;-54
2023/04/25 10:48:45;;;;;;;;;;;;;;;22.39;35.08;101635.94;7253607;19;153199;-54
2023/04/25 10:51:17;;;;;;;;;;;;;;;22.44;35.44;101636.66;7251606;19;155395;-54
2023/04/25 10:53:45;;;;;;;;;;;;;;;22.42;35.37;101638.97;7257079;19;154379;-54
2023/04/25 10:56:22;;;;;;;;;;;;;;;22.41;34.68;101628.84;7253401;19;154083;-54
2023/04/25 10:58:49;;;;;;;;;;;;;;;22.36;35.21;101643.00;7253311;19;154228;-54
2023/04/25 11:01:20;;;;;;;;;;;;;;;22.40;35.39;101641.25;7253512;19;152334;-54
2023/04/25 11:03:57;;;;;;;;;;;;;;;22.43;35.18;101632.19;7254186;19;153702;-54
2023/04/25 11:06:46;;;;;;;;;;;;;;;22.35;34.99;101630.03;7262266;19;155190;-54
2023/04/25 11:09:14;;;;;;;;;;;;;;;22.29;35.25;101631.28;7254747;19;154406;-54
2023/04/25 11:11:41;;;;;;;;;;;;;;;22.24;35.39;101636.13;7256353;19;156410;-54
2023/04/25 11:14:09;;;;;;;;;;;;;;;22.21;35.91;101633.94;7245661;19;153608;-54
2023/04/25 11:16:36;;;;;;;;;;;;;;;22.18;35.78;101626.94;7250596;19;153844;-53
2023/04/25 11:19:04;;;;;;;;;;;;;;;22.17;36.01;101628.06;7251336;19;154362;-53
2023/04/25 11:21:31;;;;;;;;;;;;;;;22.26;35.70;101639.50;7253928;19;154556;-53
2023/04/25 11:23:59;;;;;;;;;;;;;;;22.35;36.08;101627.22;7254355;19;154387;-53
2023/04/25 11:26:26;;;;;;;;;;;;;;;22.43;35.76;101620.09;7250132;19;155286;-53
2023/04/25 11:28:57;;;;;;;;;;;;;;;22.46;35.71;101617.50;7261545;19;154346;-53
2023/04/25 11:31:25;;;;;;;;;;;;;;;22.54;36.18;101624.41;7253060;19;155471;-53
2023/04/25 11:33:55;;;;;;;;;;;;;;;22.60;36.11;101618.41;7252033;19;155033;-54
2023/04/25 11:36:22;;;;;;;;;;;;;;;22.63;35.81;101626.22;7249808;19;153761;-53
2023/04/25 11:38:51;;;;;;;;;;;;;;;22.69;36.12;101623.34;7246689;19;156059;-54
2023/04/25 11:41:19;;;;;;;;;;;;;;;22.76;36.18;101623.84;7254917;19;154698;-53
2023/04/25 11:43:46;;;;;;;;;;;;;;;22.76;35.93;101627.47;7255965;19;153405;-54
2023/04/25 11:46:13;;;;;;;;;;;;;;;22.80;36.00;101622.06;7249332;19;154984;-54
2023/04/25 11:48:41;;;;;;;;;;;;;;;22.85;36.20;101627.63;7262170;19;152900;-54
2023/04/25 11:51:08;;;;;;;;;;;;;;;;;;7252216;19;153552;-54
2023/04/25 11:53:41;;;;;;;;;;;;;;;22.84;36.32;101632.41;7253350;19;160856;-53
2023/04/25 11:56:11;;;;;;;;;;;;;;;22.90;35.98;101630.31;7252064;19;153678;-54
2023/04/25 11:58:47;;;;;;;;;;;;;;;22.94;35.72;101628.59;7253096;19;157353;-54
2023/04/25 12:01:25;;;;;;;;;;;;;;;22.91;35.52;101632.84;7249901;19;153926;-54
2023/04/25 12:03:57;;;;;;;;;;;;;;;22.93;35.57;101635.38;7253829;19;155325;-54
2023/04/25 12:06:26;;;;;;;;;;;;;;;22.92;35.66;101630.88;7252385;19;154988;-54
2023/04/25 12:09:04;;;;;;;;;;;;;;;22.99;35.91;101642.56;7255670;19;154510;-54
2023/04/25 12:11:32;;;;;;;;;;;;;;;23.00;35.58;101638.63;7262484;19;153821;-54
2023/04/25 12:14:03;;;;;;;;;;;;;;;22.98;35.76;101638.09;7251642;19;153077;-54
2023/04/25 12:16:41;;;;;;;;;;;;;;;22.95;35.41;101635.88;7252131;19;152780;-54
2023/04/25 12:19:08;;;;;;;;;;;;;;;22.97;35.78;101630.78;7249159;19;156057;-54
2023/04/25 12:21:36;;;;;;;;;;;;;;;23.00;35.34;101641.44;7253713;19;153547;-54
2023/04/25 12:24:25;;;;;;;;;;;;;;;22.99;35.38;101643.41;7253204;19;152732;-54
2023/04/25 12:26:54;;;;;;;;;;;;;;;22.94;35.64;101639.88;7254075;19;154224;-54
2023/04/25 12:29:22;;;;;;;;;;;;;;;22.94;35.43;101645.50;7254530;19;154254;-54
2023/04/25 12:31:54;;;;;;;;;;;;;;;22.90;35.43;101647.22;7253442;19;156448;-54
2023/04/25 12:34:22;;;;;;;;;;;;;;;22.83;35.44;101644.81;7261402;19;154305;-54
2023/04/25 12:36:54;;;;;;;;;;;;;;;22.75;35.67;101639.06;7254238;19;153830;-55